createdAt,value
2023-05-20T00:01:22.345Z,5.07
2023-05-20T00:03:43.980Z,6.13
2023-05-20T00:06:05.516Z,5.53
2023-05-20T00:08:27.040Z,6.23
2023-05-20T00:10:48.491Z,7.67
2023-05-20T00:13:09.949Z,6.93
2023-05-20T00:15:32.729Z,5.77
2023-05-20T00:17:55.130Z,5.33
2023-05-20T00:20:16.780Z,7.03
2023-05-20T00:22:38.237Z,7.73
2023-05-20T00:24:59.891Z,5.33
2023-05-20T00:27:21.400Z,4.63
2023-05-20T00:29:42.856Z,6.00
2023-05-20T00:32:04.648Z,6.00
2023-05-20T00:34:26.169Z,8.73
2023-05-20T00:36:47.677Z,9.07
2023-05-20T00:39:09.110Z,5.70
2023-05-20T00:41:30.657Z,5.27
2023-05-20T00:43:56.333Z,7.23
2023-05-20T00:46:17.832Z,10.53
2023-05-20T00:48:42.377Z,8.50
2023-05-20T00:51:05.052Z,9.97
2023-05-20T00:53:26.963Z,10.93
2023-05-20T00:55:48.959Z,8.47
2023-05-20T00:58:10.852Z,8.57
2023-05-20T01:00:32.364Z,10.40
2023-05-20T01:02:55.675Z,8.07
2023-05-20T01:05:17.235Z,7.57
2023-05-20T01:07:38.943Z,7.30
2023-05-20T01:10:00.882Z,10.47
2023-05-20T01:12:40.397Z,10.63
2023-05-20T01:15:07.093Z,10.40
2023-05-20T01:17:32.977Z,10.53
2023-05-20T01:19:56.573Z,7.93
2023-05-20T01:22:18.027Z,12.53
2023-05-20T01:24:48.562Z,10.20
2023-05-20T01:27:11.421Z,11.57
2023-05-20T01:29:32.939Z,10.70
2023-05-20T01:31:57.098Z,6.27
2023-05-20T01:34:18.925Z,13.47
2023-05-20T01:36:41.236Z,10.37
2023-05-20T01:39:03.532Z,8.03
2023-05-20T01:41:27.335Z,11.80
2023-05-20T01:43:48.939Z,11.30
2023-05-20T01:46:10.533Z,9.10
2023-05-20T01:48:32.142Z,8.83
2023-05-20T01:50:53.655Z,7.27
2023-05-20T01:53:15.369Z,6.40
2023-05-20T01:55:36.871Z,6.77
2023-05-20T01:57:58.436Z,8.53
2023-05-20T02:00:20.142Z,6.70
2023-05-20T02:02:41.753Z,6.37
2023-05-20T02:05:03.334Z,7.33
2023-05-20T02:07:25.400Z,6.43
2023-05-20T02:09:47.729Z,7.17
2023-05-20T02:12:10.094Z,6.93
2023-05-20T02:14:31.728Z,5.47
2023-05-20T02:16:53.356Z,6.33
2023-05-20T02:19:19.797Z,8.93
2023-05-20T02:21:44.040Z,8.07
2023-05-20T02:24:05.662Z,7.13
2023-05-20T02:26:27.117Z,6.23
2023-05-20T02:28:50.767Z,7.13
2023-05-20T02:31:13.280Z,5.83
2023-05-20T02:33:35.108Z,8.50
2023-05-20T02:35:56.612Z,7.40
2023-05-20T02:38:18.076Z,9.27
2023-05-20T02:40:39.875Z,9.00
2023-05-20T02:43:04.034Z,9.27
2023-05-20T02:45:25.624Z,11.20
2023-05-20T02:47:47.128Z,16.10
2023-05-20T02:50:09.024Z,8.07
2023-05-20T02:52:30.498Z,13.60
2023-05-20T02:54:52.825Z,11.27
2023-05-20T02:57:14.445Z,8.90
2023-05-20T02:59:36.166Z,10.40
2023-05-20T03:01:57.679Z,11.73
2023-05-20T03:04:19.332Z,8.43
2023-05-20T03:06:44.447Z,8.90
2023-05-20T03:09:06.043Z,9.93
2023-05-20T03:11:27.575Z,9.50
2023-05-20T03:13:49.070Z,10.70
2023-05-20T03:16:13.214Z,10.30
2023-05-20T03:18:34.846Z,9.90
2023-05-20T03:20:56.369Z,10.40
2023-05-20T03:23:17.862Z,9.97
2023-05-20T03:25:40.668Z,9.60
2023-05-20T03:28:02.356Z,9.83
2023-05-20T03:30:24.188Z,10.07
2023-05-20T03:32:45.673Z,12.80
2023-05-20T03:35:08.605Z,10.80
2023-05-20T03:37:30.085Z,10.50
2023-05-20T03:39:51.535Z,10.30
2023-05-20T03:42:12.978Z,9.63
2023-05-20T03:44:34.447Z,10.43
2023-05-20T03:46:55.908Z,10.93
2023-05-20T03:49:17.422Z,12.90
2023-05-20T03:51:38.872Z,11.00
2023-05-20T03:54:01.172Z,13.67
2023-05-20T03:56:23.043Z,10.77
2023-05-20T03:58:44.500Z,15.67
2023-05-20T04:01:05.947Z,12.17
2023-05-20T04:03:28.955Z,11.53
2023-05-20T04:05:50.823Z,14.20
2023-05-20T04:08:13.667Z,13.57
2023-05-20T04:10:35.645Z,15.77
2023-05-20T04:12:57.217Z,15.77
2023-05-20T04:15:19.560Z,14.53
2023-05-20T04:17:41.810Z,13.90
2023-05-20T04:20:05.963Z,14.90
2023-05-20T04:22:27.521Z,16.07
2023-05-20T04:24:49.050Z,13.77
2023-05-20T04:27:11.161Z,19.40
2023-05-20T04:29:34.306Z,17.37
2023-05-20T04:31:58.771Z,14.10
2023-05-20T04:34:26.755Z,18.10
2023-05-20T04:36:49.050Z,17.07
2023-05-20T04:39:10.475Z,16.93
2023-05-20T04:41:31.932Z,16.83
2023-05-20T04:43:53.892Z,16.37
2023-05-20T04:46:16.516Z,18.13
2023-05-20T04:48:38.176Z,18.07
2023-05-20T04:50:59.890Z,18.17
2023-05-20T04:53:24.185Z,18.70
2023-05-20T04:55:46.301Z,20.17
2023-05-20T04:58:08.440Z,16.93
2023-05-20T05:00:29.908Z,17.27
2023-05-20T05:02:51.762Z,22.30
2023-05-20T05:05:13.282Z,17.53
2023-05-20T05:07:34.803Z,17.77
2023-05-20T05:09:56.361Z,17.07
2023-05-20T05:12:17.913Z,17.23
2023-05-20T05:14:41.249Z,16.13
2023-05-20T05:17:02.766Z,17.70
2023-05-20T05:19:24.261Z,14.97
2023-05-20T05:21:47.667Z,17.03
2023-05-20T05:24:09.203Z,15.30
2023-05-20T05:26:30.963Z,20.60
2023-05-20T05:28:54.986Z,18.23
2023-05-20T05:31:16.461Z,17.03
2023-05-20T05:33:37.951Z,15.80
2023-05-20T05:36:01.127Z,17.13
2023-05-20T05:38:22.619Z,16.20
2023-05-20T05:40:44.059Z,15.97
2023-05-20T05:43:05.586Z,18.17
2023-05-20T05:45:27.117Z,17.40
2023-05-20T05:47:48.603Z,16.10
2023-05-20T05:50:10.576Z,16.17
2023-05-20T05:52:32.028Z,18.70
2023-05-20T05:54:54.504Z,15.93
2023-05-20T05:57:15.965Z,17.17
2023-05-20T05:59:37.416Z,15.02
2023-05-20T06:01:59.005Z,16.77
2023-05-20T06:04:20.535Z,17.20
2023-05-20T06:06:42.112Z,15.02
2023-05-20T06:09:03.754Z,15.98
2023-05-20T06:11:26.440Z,15.05
2023-05-20T06:13:47.907Z,16.30
2023-05-20T06:16:09.428Z,15.98
2023-05-20T06:18:31.072Z,16.08
2023-05-20T06:20:56.949Z,17.83
2023-05-20T06:23:18.416Z,16.02
2023-05-20T06:25:39.903Z,16.58
2023-05-20T06:28:01.367Z,17.45
2023-05-20T06:30:22.989Z,15.15
2023-05-20T06:32:44.480Z,15.65
2023-05-20T06:35:06.324Z,15.82
2023-05-20T06:37:27.865Z,16.40
2023-05-20T06:39:53.753Z,15.48
2023-05-20T06:42:15.212Z,15.55
2023-05-20T06:44:36.721Z,14.68
2023-05-20T06:46:58.168Z,13.82
2023-05-20T06:49:19.650Z,13.35
2023-05-20T06:51:41.148Z,13.88
2023-05-20T06:54:02.629Z,13.35
2023-05-20T06:56:24.170Z,13.70
2023-05-20T06:58:45.652Z,12.10
2023-05-20T07:01:07.206Z,11.25
2023-05-20T07:03:28.721Z,11.50
2023-05-20T07:05:51.463Z,11.15
2023-05-20T07:08:12.945Z,11.82
2023-05-20T07:10:34.684Z,10.82
2023-05-20T07:12:56.386Z,11.32
2023-05-20T07:15:18.092Z,10.48
2023-05-20T07:17:39.679Z,14.18
2023-05-20T07:20:01.231Z,11.27
2023-05-20T07:22:22.757Z,10.52
2023-05-20T07:24:44.774Z,10.00
2023-05-20T07:27:06.264Z,9.63
2023-05-20T07:29:27.953Z,10.52
2023-05-20T07:31:49.438Z,10.25
2023-05-20T07:34:10.961Z,9.48
2023-05-20T07:36:32.495Z,9.48
2023-05-20T07:39:02.905Z,9.50
2023-05-20T07:41:26.596Z,9.50
2023-05-20T07:43:48.192Z,9.80
2023-05-20T07:46:09.702Z,9.70
2023-05-20T07:48:31.208Z,11.38
2023-05-20T07:50:52.710Z,14.32
2023-05-20T07:53:14.215Z,10.25
2023-05-20T07:55:38.560Z,10.98
2023-05-20T07:58:00.108Z,11.07
2023-05-20T08:00:21.609Z,11.55
2023-05-20T08:02:43.179Z,12.63
2023-05-20T08:05:05.438Z,10.73
2023-05-20T08:07:26.908Z,11.73
2023-05-20T08:09:48.376Z,11.18
2023-05-20T08:12:09.844Z,10.82
2023-05-20T08:14:31.324Z,11.27
2023-05-20T08:16:54.868Z,11.05
2023-05-20T08:19:16.672Z,15.75
2023-05-20T08:21:38.531Z,14.02
2023-05-20T08:24:00.028Z,13.75
2023-05-20T08:26:22.080Z,11.98
2023-05-20T08:28:43.587Z,12.50
2023-05-20T08:31:05.617Z,11.88
2023-05-20T08:33:27.161Z,14.35
2023-05-20T08:35:48.969Z,12.50
2023-05-20T08:38:10.472Z,13.10
2023-05-20T08:40:34.568Z,14.65
2023-05-20T08:42:57.738Z,12.63
2023-05-20T08:45:27.751Z,12.75
2023-05-20T08:47:49.423Z,13.05
2023-05-20T08:50:12.763Z,13.18
2023-05-20T08:52:35.321Z,15.75
2023-05-20T08:54:56.869Z,13.88
2023-05-20T08:57:20.373Z,15.70
2023-05-20T08:59:44.116Z,13.07
2023-05-20T09:02:06.081Z,13.35
2023-05-20T09:04:27.710Z,17.52
2023-05-20T09:06:51.093Z,14.40
2023-05-20T09:09:14.372Z,15.45
2023-05-20T09:11:35.906Z,14.63
2023-05-20T09:13:57.401Z,13.65
2023-05-20T09:16:19.146Z,15.13
2023-05-20T09:18:41.570Z,13.85
2023-05-20T09:21:07.044Z,16.00
2023-05-20T09:23:30.732Z,16.63
2023-05-20T09:25:52.939Z,13.80
2023-05-20T09:28:14.746Z,14.75
2023-05-20T09:30:36.346Z,14.27
2023-05-20T09:33:00.029Z,15.35
2023-05-20T09:35:23.333Z,14.85
2023-05-20T09:37:47.888Z,14.52
2023-05-20T09:40:12.391Z,14.88
2023-05-20T09:42:44.161Z,14.25
2023-05-20T09:45:09.482Z,15.88
2023-05-20T09:47:32.331Z,16.15
2023-05-20T09:49:54.055Z,15.30
2023-05-20T09:52:16.415Z,17.98
2023-05-20T09:54:37.927Z,16.90
2023-05-20T09:57:00.713Z,17.25
2023-05-20T09:59:23.694Z,16.58
2023-05-20T10:01:46.177Z,16.45
2023-05-20T10:04:09.669Z,17.02
2023-05-20T10:07:09.027Z,16.50
2023-05-20T10:09:51.078Z,16.95
2023-05-20T10:12:28.386Z,17.17
2023-05-20T10:15:10.465Z,17.55
2023-05-20T10:18:01.428Z,16.98
2023-05-20T10:20:23.272Z,17.83
2023-05-20T10:23:00.935Z,16.48
2023-05-20T10:25:27.747Z,16.38
2023-05-20T10:27:49.204Z,17.13
2023-05-20T10:30:21.158Z,16.45
2023-05-20T10:32:52.042Z,16.73
2023-05-20T10:35:13.543Z,17.27
2023-05-20T10:37:43.462Z,16.20
2023-05-20T10:40:15.329Z,16.13
2023-05-20T10:42:36.866Z,16.23
2023-05-20T10:44:58.369Z,15.73
2023-05-20T10:47:25.533Z,16.80
2023-05-20T10:49:47.627Z,21.60
2023-05-20T10:52:10.363Z,17.65
2023-05-20T10:54:36.484Z,15.18
2023-05-20T10:56:58.111Z,17.85
2023-05-20T10:59:21.608Z,15.93
2023-05-20T11:01:43.472Z,15.77
2023-05-20T11:04:06.041Z,15.70
2023-05-20T11:06:28.808Z,16.77
2023-05-20T11:08:50.368Z,16.92
2023-05-20T11:11:15.447Z,16.95
2023-05-20T11:13:36.964Z,16.98
2023-05-20T11:15:59.231Z,16.20
2023-05-20T11:18:20.973Z,17.63
2023-05-20T11:20:42.535Z,16.67
2023-05-20T11:23:06.199Z,17.90
2023-05-20T11:25:28.309Z,15.68
2023-05-20T11:27:50.692Z,15.52
2023-05-20T11:30:16.744Z,15.38
2023-05-20T11:32:38.251Z,14.45
2023-05-20T11:34:59.731Z,15.50
2023-05-20T11:37:22.010Z,14.15
2023-05-20T11:39:43.531Z,14.95
2023-05-20T11:42:06.377Z,15.57
2023-05-20T11:44:27.996Z,14.25
2023-05-20T11:46:49.480Z,21.20
2023-05-20T11:49:13.049Z,15.13
2023-05-20T11:51:34.914Z,15.88
2023-05-20T11:54:01.487Z,18.40
2023-05-20T11:56:22.979Z,19.75
2023-05-20T11:58:45.869Z,15.43
2023-05-20T12:01:20.838Z,28.67
2023-05-20T12:03:43.753Z,16.25
2023-05-20T12:06:05.486Z,16.27
2023-05-20T12:08:27.038Z,16.40
2023-05-20T12:10:48.540Z,17.20
2023-05-20T12:13:11.428Z,15.57
2023-05-20T12:15:32.965Z,17.55
2023-05-20T12:17:54.613Z,16.98
2023-05-20T12:20:17.308Z,21.17
2023-05-20T12:22:38.768Z,16.50
2023-05-20T12:25:00.227Z,22.63
2023-05-20T12:27:21.708Z,17.73
2023-05-20T12:29:43.153Z,18.02
2023-05-20T12:32:05.014Z,17.13
2023-05-20T12:34:26.788Z,18.38
2023-05-20T12:36:48.479Z,19.30
2023-05-20T12:39:10.889Z,18.48
2023-05-20T12:41:32.359Z,18.45
2023-05-20T12:43:54.332Z,19.05
2023-05-20T12:46:16.043Z,18.08
2023-05-20T12:48:37.586Z,18.67
2023-05-20T12:51:00.544Z,18.40
2023-05-20T12:53:21.995Z,17.38
2023-05-20T12:55:43.509Z,18.17
2023-05-20T12:58:04.966Z,21.92
2023-05-20T13:00:26.421Z,21.65
2023-05-20T13:02:48.236Z,20.27
2023-05-20T13:05:10.779Z,19.95
2023-05-20T13:07:32.821Z,18.73
2023-05-20T13:09:54.445Z,19.52
2023-05-20T13:12:15.903Z,18.27
2023-05-20T13:14:37.451Z,18.52
2023-05-20T13:16:59.012Z,19.08
2023-05-20T13:19:23.569Z,18.85
2023-05-20T13:21:45.071Z,20.70
2023-05-20T13:24:06.727Z,19.42
2023-05-20T13:26:28.396Z,18.20
2023-05-20T13:28:50.676Z,17.90
2023-05-20T13:31:12.122Z,18.02
2023-05-20T13:33:33.709Z,17.52
2023-05-20T13:35:55.262Z,18.63
2023-05-20T13:38:17.550Z,18.38
2023-05-20T13:40:39.012Z,18.30
2023-05-20T13:43:00.536Z,17.67
2023-05-20T13:45:23.265Z,16.95
2023-05-20T13:47:44.782Z,18.08
2023-05-20T13:50:07.294Z,17.45
2023-05-20T13:52:28.825Z,21.17
2023-05-20T13:54:50.287Z,19.38
2023-05-20T13:57:11.757Z,69.38
2023-05-20T13:59:33.341Z,17.15
2023-05-20T14:01:54.886Z,17.55
2023-05-20T14:04:16.490Z,16.20
2023-05-20T14:06:38.470Z,17.33
2023-05-20T14:08:59.945Z,17.60
2023-05-20T14:11:21.849Z,17.13
2023-05-20T14:13:44.472Z,18.63
2023-05-20T14:16:06.407Z,17.40
2023-05-20T14:18:27.908Z,17.70
2023-05-20T14:20:49.543Z,19.25
2023-05-20T14:23:11.271Z,17.67
2023-05-20T14:25:32.742Z,18.05
2023-05-20T14:27:54.362Z,19.13
2023-05-20T14:30:16.082Z,18.58
2023-05-20T14:32:37.694Z,20.98
2023-05-20T14:35:00.026Z,20.55
2023-05-20T14:37:22.908Z,21.33
2023-05-20T14:39:44.391Z,19.75
2023-05-20T14:42:06.128Z,19.27
2023-05-20T14:44:27.593Z,20.42
2023-05-20T14:46:49.160Z,22.00
2023-05-20T14:49:10.833Z,20.98
2023-05-20T14:51:32.390Z,25.33
2023-05-20T14:53:53.848Z,20.90
2023-05-20T14:56:15.407Z,21.27
2023-05-20T14:58:36.884Z,19.20
2023-05-20T15:00:58.388Z,22.40
2023-05-20T15:03:20.444Z,20.25
2023-05-20T15:05:42.561Z,21.60
2023-05-20T15:08:04.235Z,21.30
2023-05-20T15:10:25.780Z,19.88
2023-05-20T15:12:47.290Z,18.80
2023-05-20T15:15:09.821Z,19.45
2023-05-20T15:17:31.303Z,20.33
2023-05-20T15:19:52.893Z,18.60
2023-05-20T15:22:14.425Z,18.73
2023-05-20T15:24:35.940Z,19.48
2023-05-20T15:26:57.575Z,19.45
2023-05-20T15:29:19.068Z,18.25
2023-05-20T15:31:40.534Z,19.67
2023-05-20T15:34:02.638Z,18.70
2023-05-20T15:36:24.353Z,41.13
2023-05-20T15:38:45.815Z,29.77
2023-05-20T15:41:07.908Z,19.90
2023-05-20T15:43:29.440Z,18.52
2023-05-20T15:45:50.961Z,17.70
2023-05-20T15:48:12.694Z,17.88
2023-05-20T15:50:37.419Z,18.40
2023-05-20T15:52:59.006Z,18.83
2023-05-20T15:55:23.128Z,20.90
2023-05-20T15:57:44.895Z,19.67
2023-05-20T16:00:10.332Z,18.83
2023-05-20T16:02:36.027Z,18.42
2023-05-20T16:04:57.986Z,19.15
2023-05-20T16:07:19.640Z,16.45
2023-05-20T16:09:41.294Z,19.80
2023-05-20T16:12:02.876Z,19.17
2023-05-20T16:14:24.412Z,18.00
2023-05-20T16:16:46.037Z,19.02
2023-05-20T16:19:07.626Z,18.13
2023-05-20T16:21:29.230Z,17.10
2023-05-20T16:23:50.973Z,16.65
2023-05-20T16:26:12.489Z,16.90
2023-05-20T16:28:34.015Z,22.10
2023-05-20T16:30:55.648Z,16.90
2023-05-20T16:33:17.493Z,17.95
2023-05-20T16:35:38.972Z,16.98
2023-05-20T16:38:00.738Z,19.70
2023-05-20T16:40:22.644Z,18.80
2023-05-20T16:42:44.803Z,16.65
2023-05-20T16:45:06.917Z,17.65
2023-05-20T16:47:28.358Z,18.50
2023-05-20T16:49:49.825Z,15.43
2023-05-20T16:52:11.902Z,16.45
2023-05-20T16:54:36.182Z,16.65
2023-05-20T16:56:57.659Z,15.63
2023-05-20T16:59:19.305Z,16.42
2023-05-20T17:01:40.891Z,17.75
2023-05-20T17:04:03.389Z,14.48
2023-05-20T17:06:24.970Z,15.50
2023-05-20T17:08:46.583Z,16.05
2023-05-20T17:11:08.057Z,15.82
2023-05-20T17:13:29.545Z,16.08
2023-05-20T17:15:51.046Z,16.67
2023-05-20T17:18:12.584Z,15.55
2023-05-20T17:20:34.273Z,16.05
2023-05-20T17:22:55.839Z,16.40
2023-05-20T17:25:17.320Z,14.23
2023-05-20T17:27:38.894Z,14.65
2023-05-20T17:30:00.416Z,14.32
2023-05-20T17:32:21.898Z,14.95
2023-05-20T17:34:43.333Z,15.63
2023-05-20T17:37:04.988Z,14.43
2023-05-20T17:39:26.432Z,17.00
2023-05-20T17:41:47.883Z,14.45
2023-05-20T17:44:09.351Z,16.25
2023-05-20T17:46:31.099Z,14.23
2023-05-20T17:48:52.675Z,14.50
2023-05-20T17:51:14.183Z,14.85
2023-05-20T17:53:35.632Z,15.10
2023-05-20T17:55:57.161Z,15.73
2023-05-20T17:58:22.200Z,15.27
2023-05-20T18:00:43.832Z,14.23
2023-05-20T18:03:05.929Z,16.55
2023-05-20T18:05:27.452Z,15.15
2023-05-20T18:07:48.894Z,16.23
2023-05-20T18:10:10.828Z,16.33
2023-05-20T18:12:32.265Z,16.27
2023-05-20T18:14:53.724Z,15.25
2023-05-20T18:17:15.471Z,18.13
2023-05-20T18:19:36.943Z,16.60
2023-05-20T18:21:58.624Z,18.10
2023-05-20T18:24:20.584Z,17.38
2023-05-20T18:26:45.646Z,18.17
2023-05-20T18:29:07.128Z,18.88
2023-05-20T18:31:28.670Z,16.88
2023-05-20T18:33:50.136Z,17.90
2023-05-20T18:36:11.886Z,17.77
2023-05-20T18:38:33.363Z,16.95
2023-05-20T18:40:54.931Z,18.65
2023-05-20T18:43:16.444Z,19.02
2023-05-20T18:45:37.921Z,16.88
2023-05-20T18:48:00.026Z,17.30
2023-05-20T18:50:21.755Z,17.42
2023-05-20T18:52:43.213Z,21.40
2023-05-20T18:55:04.969Z,19.23
2023-05-20T18:57:29.173Z,23.58
2023-05-20T18:59:50.610Z,21.63
2023-05-20T19:02:12.083Z,18.80
2023-05-20T19:04:33.542Z,21.38
2023-05-20T19:06:55.017Z,19.55
2023-05-20T19:09:16.526Z,22.05
2023-05-20T19:11:38.086Z,22.27
2023-05-20T19:13:59.606Z,22.63
2023-05-20T19:16:21.270Z,20.83
2023-05-20T19:18:42.787Z,18.90
2023-05-20T19:21:04.455Z,20.27
2023-05-20T19:23:25.985Z,21.17
2023-05-20T19:25:47.521Z,20.65
2023-05-20T19:28:08.974Z,23.20
2023-05-20T19:30:30.644Z,22.30
2023-05-20T19:32:52.195Z,26.08
2023-05-20T19:35:13.772Z,26.08
2023-05-20T19:37:35.251Z,27.42
2023-05-20T19:39:56.799Z,23.00
2023-05-20T19:42:18.331Z,21.65
2023-05-20T19:44:39.799Z,20.70
2023-05-20T19:47:01.533Z,20.02
2023-05-20T19:49:22.996Z,19.63
2023-05-20T19:51:44.509Z,19.38
2023-05-20T19:54:05.966Z,20.42
2023-05-20T19:56:27.447Z,19.70
2023-05-20T19:58:48.905Z,19.10
2023-05-20T20:01:10.739Z,21.27
2023-05-20T20:03:34.036Z,21.95
2023-05-20T20:05:57.050Z,19.75
2023-05-20T20:08:18.729Z,20.85
2023-05-20T20:10:40.202Z,20.52
2023-05-20T20:13:01.686Z,22.02
2023-05-20T20:15:25.005Z,23.67
2023-05-20T20:17:52.004Z,25.70
2023-05-20T20:20:14.369Z,22.98
2023-05-20T20:22:35.969Z,22.08
2023-05-20T20:24:57.402Z,26.02
2023-05-20T20:27:19.290Z,27.58
2023-05-20T20:29:43.768Z,22.42
2023-05-20T20:32:05.891Z,24.80
2023-05-20T20:34:27.404Z,21.48
2023-05-20T20:36:50.689Z,21.27
2023-05-20T20:39:19.117Z,23.42
2023-05-20T20:41:45.029Z,23.55
2023-05-20T20:44:07.249Z,23.00
2023-05-20T20:46:28.827Z,20.40
2023-05-20T20:48:50.362Z,19.55
2023-05-20T20:51:17.889Z,17.48
2023-05-20T20:53:41.915Z,19.40
2023-05-20T20:56:03.804Z,22.40
2023-05-20T20:58:25.285Z,21.73
2023-05-20T21:00:48.625Z,20.00
2023-05-20T21:03:11.962Z,23.02
2023-05-20T21:05:37.309Z,23.92
2023-05-20T21:07:59.223Z,27.65
2023-05-20T21:10:20.791Z,25.42
2023-05-20T21:12:42.296Z,25.77
2023-05-20T21:15:04.022Z,26.95
2023-05-20T21:17:25.512Z,21.77
2023-05-20T21:19:46.951Z,20.63
2023-05-20T21:22:08.451Z,24.20
2023-05-20T21:24:29.970Z,24.20
2023-05-20T21:26:51.428Z,26.80
2023-05-20T21:29:12.871Z,30.50
2023-05-20T21:31:34.491Z,28.75
2023-05-20T21:33:56.105Z,24.87
2023-05-20T21:36:17.551Z,23.13
2023-05-20T21:38:39.151Z,21.95
2023-05-20T21:41:01.678Z,22.73
2023-05-20T21:43:23.170Z,20.20
2023-05-20T21:45:45.750Z,21.60
2023-05-20T21:48:07.276Z,20.97
2023-05-20T21:50:28.737Z,21.67
2023-05-20T21:52:50.506Z,25.17
2023-05-20T21:55:12.161Z,20.60
2023-05-20T21:57:33.590Z,22.03
2023-05-20T21:59:55.051Z,23.10
2023-05-20T22:02:17.588Z,24.03
2023-05-20T22:04:39.076Z,24.03
2023-05-20T22:07:00.759Z,20.97
2023-05-20T22:09:22.516Z,22.53
2023-05-20T22:11:45.227Z,24.60
2023-05-20T22:14:06.702Z,20.23
2023-05-20T22:16:28.879Z,21.33
2023-05-20T22:18:50.461Z,22.03
2023-05-20T22:21:12.602Z,20.53
2023-05-20T22:23:34.118Z,22.87
2023-05-20T22:25:56.265Z,20.43
2023-05-20T22:28:17.852Z,22.80
2023-05-20T22:30:39.311Z,23.83
2023-05-20T22:33:00.812Z,20.73
2023-05-20T22:35:23.763Z,20.47
2023-05-20T22:37:45.288Z,24.47
2023-05-20T22:40:07.750Z,23.70
2023-05-20T22:42:29.247Z,22.50
2023-05-20T22:44:50.740Z,20.83
2023-05-20T22:47:12.283Z,21.60
2023-05-20T22:49:33.798Z,23.00
2023-05-20T22:51:55.280Z,23.97
2023-05-20T22:54:17.454Z,23.50
2023-05-20T22:56:38.944Z,23.67
2023-05-20T22:59:00.772Z,21.33
2023-05-20T23:01:22.302Z,20.77
2023-05-20T23:03:46.880Z,22.00
2023-05-20T23:06:08.351Z,20.60
2023-05-20T23:08:29.958Z,25.33
2023-05-20T23:10:51.499Z,25.77
2023-05-20T23:13:13.073Z,23.13
2023-05-20T23:15:34.850Z,21.20
2023-05-20T23:17:56.610Z,22.50
2023-05-20T23:20:19.769Z,25.07
2023-05-20T23:22:41.335Z,25.27
2023-05-20T23:25:03.070Z,22.17
2023-05-20T23:27:24.502Z,20.97
2023-05-20T23:29:46.023Z,22.23
2023-05-20T23:32:07.635Z,22.47
2023-05-20T23:34:30.837Z,24.67
2023-05-20T23:36:52.899Z,19.83
2023-05-20T23:39:16.254Z,20.43
2023-05-20T23:41:39.590Z,21.33
2023-05-20T23:44:03.856Z,20.60
2023-05-20T23:46:25.758Z,20.77
2023-05-20T23:48:49.949Z,21.63
2023-05-20T23:51:13.551Z,20.47
2023-05-20T23:53:35.033Z,23.60
2023-05-20T23:55:56.487Z,21.40
2023-05-20T23:58:18.142Z,21.33
